Time;durP1;ratioP1;P1;durP2;ratioP2;P2;SDS_P1;SDS_P2;PMS_P1;PMS_P2;Temp;Humidity;BMP_temperature;BMP_pressure;BME280_temperature;BME280_humidity;BME280_pressure;Samples;Min_cycle;Max_cycle;Signal;HPM_P1;HPM_P2
2022/08/30 00:02:50;;;;;;;9.93;6.30;;;;;;;;;;5053672;28;20067;-76
2022/08/30 00:05:17;;;;;;;8.57;5.53;;;;;;;;;;5037715;28;20429;-76
2022/08/30 00:07:43;;;;;;;8.40;4.90;;;;;;;;;;5053759;28;20127;-76
2022/08/30 00:10:09;;;;;;;9.20;6.55;;;;;;;;;;5037353;28;20036;-76
2022/08/30 00:12:35;;;;;;;6.85;4.80;;;;;;;;;;5053852;28;20076;-76
2022/08/30 00:15:01;;;;;;;6.78;4.75;;;;;;;;;;5054164;28;20049;-76
2022/08/30 00:17:27;;;;;;;8.23;6.15;;;;;;;;;;5053874;28;20036;-76
2022/08/30 00:19:54;;;;;;;11.23;5.68;;;;;;;;;;5020519;28;20080;-76
2022/08/30 00:22:21;;;;;;;9.60;6.38;;;;;;;;;;5036669;28;20037;-76
2022/08/30 00:24:48;;;;;;;20.00;8.27;;;;;;;;;;5053827;28;20047;-76
2022/08/30 00:27:14;;;;;;;7.70;5.60;;;;;;;;;;5053704;28;20045;-76
2022/08/30 00:29:40;;;;;;;9.85;6.30;;;;;;;;;;5053491;28;20045;-76
2022/08/30 00:32:06;;;;;;;9.55;6.35;;;;;;;;;;5053821;28;20060;-76
2022/08/30 00:34:33;;;;;;;10.27;6.53;;;;;;;;;;5036529;28;20528;-76
2022/08/30 00:36:59;;;;;;;8.00;5.85;;;;;;;;;;5053751;28;20040;-76
2022/08/30 00:39:25;;;;;;;10.02;7.05;;;;;;;;;;5053619;28;20051;-76
2022/08/30 00:41:51;;;;;;;11.75;7.15;;;;;;;;;;5053287;28;20477;-76
2022/08/30 00:44:18;;;;;;;9.35;7.03;;;;;;;;;;5053334;28;20087;-75
2022/08/30 00:46:44;;;;;;;9.27;6.35;;;;;;;;;;5053268;28;20041;-76
2022/08/30 00:49:11;;;;;;;9.65;6.68;;;;;;;;;;5036553;28;20040;-76
2022/08/30 00:51:38;;;;;;;11.82;7.15;;;;;;;;;;5035895;28;20102;-75
2022/08/30 00:54:05;;;;;;;12.10;6.97;;;;;;;;;;5053472;28;20067;-74
2022/08/30 00:56:32;;;;;;;10.57;7.63;;;;;;;;;;5036503;28;20493;-76
2022/08/30 00:58:59;;;;;;;11.85;8.02;;;;;;;;;;5053407;28;20029;-76
2022/08/30 01:01:26;;;;;;;8.52;6.43;;;;;;;;;;5053664;28;20048;-76
2022/08/30 01:03:53;;;;;;;10.80;6.80;;;;;;;;;;5052936;28;20037;-76
2022/08/30 01:06:19;;;;;;;11.50;7.43;;;;;;;;;;5053058;28;20049;-76
2022/08/30 01:08:46;;;;;;;11.25;7.68;;;;;;;;;;5052889;28;20039;-76
2022/08/30 01:11:13;;;;;;;9.50;5.75;;;;;;;;;;5036558;28;20136;-76
2022/08/30 01:13:39;;;;;;;9.90;7.28;;;;;;;;;;5052191;28;20040;-76
2022/08/30 01:16:06;;;;;;;9.32;6.35;;;;;;;;;;5052717;28;20136;-76
2022/08/30 01:18:32;;;;;;;11.68;6.47;;;;;;;;;;5036919;28;20033;-76
2022/08/30 01:20:59;;;;;;;11.00;7.63;;;;;;;;;;5052680;28;20045;-76
2022/08/30 01:23:25;;;;;;;8.45;5.38;;;;;;;;;;5036454;28;20563;-76
2022/08/30 01:25:53;;;;;;;9.63;5.90;;;;;;;;;;5037767;28;20076;-75
2022/08/30 01:28:23;;;;;;;10.88;5.97;;;;;;;;;;5052774;28;20052;-75
2022/08/30 01:30:50;;;;;;;9.18;5.18;;;;;;;;;;5052612;28;20077;-75
2022/08/30 01:33:18;;;;;;;8.25;5.45;;;;;;;;;;5036409;28;20123;-75
2022/08/30 01:35:48;;;;;;;11.88;7.43;;;;;;;;;;5051900;28;20076;-76
2022/08/30 01:38:14;;;;;;;7.70;6.18;;;;;;;;;;5052363;28;20082;-76
2022/08/30 01:40:41;;;;;;;11.15;7.70;;;;;;;;;;5053818;28;20522;-76
2022/08/30 01:43:07;;;;;;;12.77;7.72;;;;;;;;;;5052353;28;20041;-76
2022/08/30 01:45:33;;;;;;;12.63;7.88;;;;;;;;;;5052369;28;20114;-76
2022/08/30 01:47:59;;;;;;;14.05;8.52;;;;;;;;;;5051563;28;20044;-76
2022/08/30 01:50:25;;;;;;;10.55;8.40;;;;;;;;;;5052134;28;20041;-76
2022/08/30 01:52:51;;;;;;;12.07;8.23;;;;;;;;;;5051539;28;20104;-76
2022/08/30 01:55:18;;;;;;;12.38;8.93;;;;;;;;;;5052153;28;20540;-76
2022/08/30 01:57:45;;;;;;;14.65;8.60;;;;;;;;;;5050259;28;20134;-76
2022/08/30 02:00:12;;;;;;;14.65;9.05;;;;;;;;;;5052003;28;20056;-76
2022/08/30 02:02:38;;;;;;;14.20;8.45;;;;;;;;;;5050291;28;20091;-76
2022/08/30 02:05:05;;;;;;;15.95;8.48;;;;;;;;;;5043802;28;20128;-76
2022/08/30 02:07:31;;;;;;;11.77;7.93;;;;;;;;;;5040073;28;20057;-76
2022/08/30 02:09:57;;;;;;;12.75;8.65;;;;;;;;;;5048668;28;20120;-76
2022/08/30 02:12:24;;;;;;;11.65;7.80;;;;;;;;;;5041434;28;20037;-76
2022/08/30 02:14:50;;;;;;;12.13;7.70;;;;;;;;;;5041719;28;20468;-76
2022/08/30 02:17:18;;;;;;;11.40;7.65;;;;;;;;;;5045002;28;20041;-76
2022/08/30 02:19:44;;;;;;;14.73;8.73;;;;;;;;;;5044039;28;20041;-76
2022/08/30 02:22:11;;;;;;;11.88;7.70;;;;;;;;;;5044641;28;20429;-76
2022/08/30 02:24:37;;;;;;;11.05;8.18;;;;;;;;;;5043835;28;20044;-76
2022/08/30 02:27:03;;;;;;;10.52;8.07;;;;;;;;;;5050740;28;20064;-76
2022/08/30 02:29:29;;;;;;;13.68;7.57;;;;;;;;;;5039921;28;20041;-76
2022/08/30 02:31:55;;;;;;;10.38;6.97;;;;;;;;;;5042817;28;20075;-76
2022/08/30 02:34:21;;;;;;;9.60;7.30;;;;;;;;;;5025322;28;20048;-76
2022/08/30 02:36:47;;;;;;;13.05;8.45;;;;;;;;;;5040035;28;20080;-76
2022/08/30 02:39:14;;;;;;;13.00;8.73;;;;;;;;;;5050392;28;20048;-76
2022/08/30 02:41:40;;;;;;;13.80;8.63;;;;;;;;;;5063905;28;20102;-76
2022/08/30 02:44:07;;;;;;;11.52;8.10;;;;;;;;;;5050957;28;20059;-76
2022/08/30 02:46:33;;;;;;;13.65;8.27;;;;;;;;;;5051403;28;20041;-76
2022/08/30 02:49:00;;;;;;;12.80;7.75;;;;;;;;;;5014245;28;20038;-76
2022/08/30 02:51:26;;;;;;;10.65;5.47;;;;;;;;;;5043166;28;20128;-76
2022/08/30 02:53:52;;;;;;;9.48;5.40;;;;;;;;;;5034227;28;20037;-76
2022/08/30 02:56:18;;;;;;;7.22;5.63;;;;;;;;;;5051360;28;20037;-76
2022/08/30 02:58:44;;;;;;;9.85;6.97;;;;;;;;;;5050652;28;20048;-76
2022/08/30 03:01:12;;;;;;;9.27;7.35;;;;;;;;;;5039154;28;20044;-76
2022/08/30 03:03:38;;;;;;;7.95;5.05;;;;;;;;;;5034204;28;20053;-76
2022/08/30 03:06:05;;;;;;;12.27;6.00;;;;;;;;;;5050615;28;20470;-76
2022/08/30 03:08:31;;;;;;;11.05;6.82;;;;;;;;;;5050860;28;20048;-76
2022/08/30 03:10:58;;;;;;;12.20;7.13;;;;;;;;;;5033888;28;20462;-76
2022/08/30 03:13:24;;;;;;;10.73;6.75;;;;;;;;;;5050731;28;20508;-76
2022/08/30 03:15:50;;;;;;;12.93;8.80;;;;;;;;;;5033008;28;20080;-76
2022/08/30 03:18:17;;;;;;;11.45;8.63;;;;;;;;;;5050883;28;20098;-76
2022/08/30 03:20:43;;;;;;;8.57;5.53;;;;;;;;;;5050754;28;20083;-76
2022/08/30 03:23:09;;;;;;;9.75;6.47;;;;;;;;;;5049719;28;20029;-76
2022/08/30 03:25:35;;;;;;;9.82;6.88;;;;;;;;;;5050922;28;20045;-76
2022/08/30 03:28:02;;;;;;;8.30;6.15;;;;;;;;;;5050023;28;20040;-76
2022/08/30 03:30:28;;;;;;;8.02;5.72;;;;;;;;;;5034071;28;20065;-76
2022/08/30 03:32:54;;;;;;;8.00;5.25;;;;;;;;;;5050621;28;20099;-76
2022/08/30 03:35:20;;;;;;;11.38;7.15;;;;;;;;;;5050522;28;20049;-76
2022/08/30 03:37:46;;;;;;;8.13;5.45;;;;;;;;;;5050777;28;20041;-76
2022/08/30 03:40:15;;;;;;;11.80;8.00;;;;;;;;;;5033661;28;20041;-76
2022/08/30 03:42:41;;;;;;;10.20;7.65;;;;;;;;;;5050547;28;20402;-76
2022/08/30 03:45:08;;;;;;;9.13;6.55;;;;;;;;;;5033243;28;20044;-76
2022/08/30 03:47:34;;;;;;;11.05;8.05;;;;;;;;;;5050460;28;20045;-76
2022/08/30 03:50:00;;;;;;;12.18;8.07;;;;;;;;;;5049682;28;20472;-75
2022/08/30 03:52:27;;;;;;;14.32;9.52;;;;;;;;;;5050320;28;20053;-76
2022/08/30 03:54:53;;;;;;;16.00;9.85;;;;;;;;;;5045146;28;20060;-76
2022/08/30 03:57:19;;;;;;;8.30;6.13;;;;;;;;;;5033120;28;20037;-76
2022/08/30 03:59:45;;;;;;;13.88;9.60;;;;;;;;;;5036932;28;20037;-77
2022/08/30 04:02:11;;;;;;;11.80;8.90;;;;;;;;;;5058643;28;20067;-76
2022/08/30 04:04:37;;;;;;;15.63;9.48;;;;;;;;;;5025954;28;20051;-76
2022/08/30 04:07:03;;;;;;;14.32;9.60;;;;;;;;;;5046458;28;20060;-76
2022/08/30 04:09:30;;;;;;;8.68;6.40;;;;;;;;;;5035145;28;20073;-76
2022/08/30 04:11:56;;;;;;;13.35;8.63;;;;;;;;;;5022529;28;20045;-76
2022/08/30 04:14:22;;;;;;;16.15;10.02;;;;;;;;;;5046240;28;20040;-76
2022/08/30 04:16:49;;;;;;;13.80;9.80;;;;;;;;;;5031277;28;20081;-76
2022/08/30 04:19:15;;;;;;;12.43;9.50;;;;;;;;;;5049832;28;20075;-76
2022/08/30 04:21:41;;;;;;;9.55;6.53;;;;;;;;;;5044226;28;20052;-76
2022/08/30 04:24:07;;;;;;;12.57;8.35;;;;;;;;;;5041574;28;20448;-76
2022/08/30 04:26:33;;;;;;;12.45;8.73;;;;;;;;;;5045967;28;20478;-76
2022/08/30 04:29:00;;;;;;;13.20;9.00;;;;;;;;;;5046653;28;20044;-76
2022/08/30 04:31:26;;;;;;;13.80;9.23;;;;;;;;;;5048308;28;20036;-76
2022/08/30 04:33:52;;;;;;;13.85;10.02;;;;;;;;;;5047099;28;20067;-75
2022/08/30 04:36:18;;;;;;;13.52;9.55;;;;;;;;;;5039090;28;20408;-76
2022/08/30 04:38:44;;;;;;;14.20;10.13;;;;;;;;;;5048338;28;20539;-76
2022/08/30 04:41:15;;;;;;;14.55;9.50;;;;;;;;;;5044794;28;20378;-76
2022/08/30 04:43:42;;;;;;;14.90;10.77;;;;;;;;;;5033592;28;20043;-75
2022/08/30 04:46:08;;;;;;;16.00;9.80;;;;;;;;;;5034209;28;20414;-74
2022/08/30 04:48:34;;;;;;;13.40;9.80;;;;;;;;;;5041901;28;20045;-76
2022/08/30 04:51:02;;;;;;;13.07;9.85;;;;;;;;;;5051209;28;20041;-75
2022/08/30 04:53:29;;;;;;;13.63;10.10;;;;;;;;;;5052731;28;20064;-75
2022/08/30 04:55:56;;;;;;;15.38;9.60;;;;;;;;;;5037222;28;20128;-75
2022/08/30 04:58:22;;;;;;;11.98;7.18;;;;;;;;;;5053322;28;20040;-75
2022/08/30 05:00:48;;;;;;;11.77;6.90;;;;;;;;;;5047245;28;20564;-75
2022/08/30 05:03:15;;;;;;;12.73;8.70;;;;;;;;;;5036690;28;20370;-76
2022/08/30 05:05:41;;;;;;;13.07;9.90;;;;;;;;;;5052299;28;20045;-75
2022/08/30 05:08:09;;;;;;;13.05;9.32;;;;;;;;;;5053546;28;20041;-75
2022/08/30 05:10:38;;;;;;;13.40;10.13;;;;;;;;;;5041875;28;20044;-75
2022/08/30 05:13:04;;;;;;;15.18;9.90;;;;;;;;;;5051928;28;20579;-75
2022/08/30 05:15:30;;;;;;;10.35;8.63;;;;;;;;;;5051568;28;20152;-75
2022/08/30 05:17:56;;;;;;;10.38;7.43;;;;;;;;;;5052789;28;20056;-76
2022/08/30 05:20:22;;;;;;;11.20;7.45;;;;;;;;;;5051547;28;20058;-75
2022/08/30 05:22:51;;;;;;;7.88;6.40;;;;;;;;;;5052552;28;20064;-75
2022/08/30 05:25:19;;;;;;;8.43;5.60;;;;;;;;;;5051102;28;20079;-76
2022/08/30 05:27:45;;;;;;;6.78;5.18;;;;;;;;;;5052407;28;20531;-77
2022/08/30 05:30:12;;;;;;;7.68;5.28;;;;;;;;;;5050892;28;20072;-77
2022/08/30 05:32:38;;;;;;;7.28;5.20;;;;;;;;;;5051389;28;20398;-77
2022/08/30 05:35:08;;;;;;;5.53;4.78;;;;;;;;;;5050651;28;20044;-77
2022/08/30 05:37:34;;;;;;;8.05;4.65;;;;;;;;;;5067367;28;20037;-76
2022/08/30 05:40:00;;;;;;;7.45;4.30;;;;;;;;;;5048741;28;20044;-77
2022/08/30 05:42:27;;;;;;;5.13;4.20;;;;;;;;;;5034830;28;20049;-77
2022/08/30 05:44:53;;;;;;;6.68;4.35;;;;;;;;;;5050183;28;20045;-77
2022/08/30 05:47:20;;;;;;;6.75;4.13;;;;;;;;;;5040284;28;20046;-77
2022/08/30 05:49:47;;;;;;;6.93;4.32;;;;;;;;;;5050441;28;20045;-78
2022/08/30 05:52:14;;;;;;;6.40;3.58;;;;;;;;;;5019104;28;20060;-77
2022/08/30 05:54:40;;;;;;;7.47;4.40;;;;;;;;;;5052585;28;20076;-77
2022/08/30 05:57:07;;;;;;;6.28;3.97;;;;;;;;;;5035296;28;20041;-77
2022/08/30 05:59:33;;;;;;;7.03;3.53;;;;;;;;;;5052297;28;20055;-78
2022/08/30 06:01:59;;;;;;;4.25;3.33;;;;;;;;;;5034991;28;20497;-78
2022/08/30 06:04:26;;;;;;;7.35;3.45;;;;;;;;;;5035808;28;20073;-78
2022/08/30 06:06:52;;;;;;;5.57;3.60;;;;;;;;;;5052181;28;20387;-78
2022/08/30 06:09:18;;;;;;;6.63;3.78;;;;;;;;;;5051794;28;20059;-77
2022/08/30 06:11:45;;;;;;;5.43;3.70;;;;;;;;;;5050374;28;20041;-78
2022/08/30 06:14:12;;;;;;;5.35;3.25;;;;;;;;;;5051078;28;20060;-78
2022/08/30 06:16:39;;;;;;;5.05;3.42;;;;;;;;;;5051950;28;20041;-77
2022/08/30 06:19:07;;;;;;;5.80;3.30;;;;;;;;;;5051476;28;20039;-77
2022/08/30 06:21:34;;;;;;;5.18;3.20;;;;;;;;;;5035061;28;20032;-77
2022/08/30 06:24:01;;;;;;;5.93;3.17;;;;;;;;;;5051209;28;20053;-77
2022/08/30 06:26:27;;;;;;;5.68;2.95;;;;;;;;;;5051200;28;20033;-77
2022/08/30 06:28:54;;;;;;;4.03;3.13;;;;;;;;;;5051476;28;20041;-77
2022/08/30 06:31:21;;;;;;;4.53;3.10;;;;;;;;;;5051111;28;20124;-77
2022/08/30 06:33:47;;;;;;;3.80;3.00;;;;;;;;;;5050162;28;20048;-77
2022/08/30 06:36:14;;;;;;;5.80;2.80;;;;;;;;;;5051070;28;20036;-78
2022/08/30 06:38:41;;;;;;;4.53;2.58;;;;;;;;;;5050680;28;20044;-78
2022/08/30 06:41:14;;;;;;;5.72;2.80;;;;;;;;;;5045880;28;20581;-78
2022/08/30 06:43:40;;;;;;;5.20;2.70;;;;;;;;;;5049727;28;20041;-77
2022/08/30 06:46:08;;;;;;;6.72;2.53;;;;;;;;;;5049699;28;20048;-78
2022/08/30 06:48:34;;;;;;;5.22;2.45;;;;;;;;;;5050663;28;20179;-78
2022/08/30 06:51:00;;;;;;;6.63;2.25;;;;;;;;;;5014444;28;20042;-78
2022/08/30 06:53:28;;;;;;;4.70;2.47;;;;;;;;;;5059749;28;20103;-78
2022/08/30 06:55:59;;;;;;;4.40;2.45;;;;;;;;;;5033959;28;20045;-78
2022/08/30 06:58:26;;;;;;;7.38;2.88;;;;;;;;;;5051063;28;20398;-78
2022/08/30 07:00:52;;;;;;;4.28;2.40;;;;;;;;;;5034434;28;20045;-78
2022/08/30 07:03:18;;;;;;;6.75;2.47;;;;;;;;;;5050733;28;20095;-78
2022/08/30 07:05:44;;;;;;;4.55;2.30;;;;;;;;;;5051010;28;20045;-77
2022/08/30 07:08:10;;;;;;;3.85;2.05;;;;;;;;;;5051238;28;20052;-78
2022/08/30 07:10:40;;;;;;;4.13;2.30;;;;;;;;;;5050773;28;20539;-78
2022/08/30 07:13:06;;;;;;;4.47;2.10;;;;;;;;;;5051542;28;20041;-78
2022/08/30 07:15:32;;;;;;;6.47;1.88;;;;;;;;;;5033289;28;20105;-78
2022/08/30 07:20:43;;;;;;;2.50;1.20;;;;;;;;;;5050698;28;20041;-78
2022/08/30 07:23:10;;;;;;;3.05;1.50;;;;;;;;;;5050883;28;20040;-78
2022/08/30 07:25:36;;;;;;;5.00;1.35;;;;;;;;;;5033145;28;20102;-78
2022/08/30 07:28:03;;;;;;;4.38;1.40;;;;;;;;;;5061680;28;20397;-78
2022/08/30 07:30:30;;;;;;;3.20;1.20;;;;;;;;;;5042858;28;20405;-78
2022/08/30 07:32:56;;;;;;;2.75;1.13;;;;;;;;;;5022048;28;20448;-78
2022/08/30 07:35:22;;;;;;;5.93;1.10;;;;;;;;;;5040100;28;20045;-78
2022/08/30 07:37:49;;;;;;;3.80;1.13;;;;;;;;;;5044640;28;20038;-78
2022/08/30 07:40:15;;;;;;;2.75;1.10;;;;;;;;;;5044169;28;20052;-78
2022/08/30 07:42:41;;;;;;;4.82;1.20;;;;;;;;;;5041124;28;20047;-77
2022/08/30 07:45:08;;;;;;;3.25;1.20;;;;;;;;;;5043145;28;20049;-78
2022/08/30 07:47:34;;;;;;;2.15;1.10;;;;;;;;;;5026007;28;20038;-78
2022/08/30 07:50:01;;;;;;;3.75;1.10;;;;;;;;;;5048713;28;20051;-79
2022/08/30 07:52:27;;;;;;;2.13;1.02;;;;;;;;;;5050707;28;20383;-78
2022/08/30 07:54:57;;;;;;;4.57;1.10;;;;;;;;;;5050775;28;20405;-79
2022/08/30 07:57:24;;;;;;;2.70;1.10;;;;;;;;;;5050223;28;20052;-78
2022/08/30 07:59:51;;;;;;;2.65;1.08;;;;;;;;;;5050416;28;20118;-78
2022/08/30 08:02:17;;;;;;;2.95;0.95;;;;;;;;;;5035502;28;20048;-77
2022/08/30 08:04:43;;;;;;;2.22;0.80;;;;;;;;;;5037858;28;20041;-78
2022/08/30 08:07:10;;;;;;;2.45;0.98;;;;;;;;;;5054895;28;20047;-78
2022/08/30 08:09:37;;;;;;;2.63;1.20;;;;;;;;;;5037028;28;20045;-78
2022/08/30 08:12:04;;;;;;;2.95;1.10;;;;;;;;;;5037215;28;20048;-78
2022/08/30 08:14:31;;;;;;;3.88;1.20;;;;;;;;;;5053872;28;20080;-79
2022/08/30 08:16:57;;;;;;;2.58;1.10;;;;;;;;;;5017963;28;20045;-79
2022/08/30 08:19:23;;;;;;;2.30;0.95;;;;;;;;;;5064218;28;20124;-77
2022/08/30 08:21:49;;;;;;;4.03;1.15;;;;;;;;;;5035144;28;20044;-79
2022/08/30 08:24:15;;;;;;;3.08;1.20;;;;;;;;;;5051442;28;20095;-78
2022/08/30 08:26:41;;;;;;;2.40;1.10;;;;;;;;;;5052371;28;20094;-78
2022/08/30 08:29:09;;;;;;;2.53;1.00;;;;;;;;;;5051047;28;20538;-77
2022/08/30 08:31:35;;;;;;;2.97;0.98;;;;;;;;;;5051185;28;20477;-78
2022/08/30 08:34:04;;;;;;;3.75;0.90;;;;;;;;;;5051289;28;20504;-78
2022/08/30 08:36:34;;;;;;;3.47;1.13;;;;;;;;;;5050923;28;20060;-78
2022/08/30 08:39:01;;;;;;;5.70;1.20;;;;;;;;;;5062052;28;20041;-78
2022/08/30 08:41:43;;;;;;;2.88;1.13;;;;;;;;;;5032636;28;20052;-78
2022/08/30 08:44:21;;;;;;;5.72;1.45;;;;;;;;;;5051103;28;20127;-78
2022/08/30 08:46:59;;;;;;;3.17;1.30;;;;;;;;;;5049755;28;20036;-78
2022/08/30 08:49:25;;;;;;;5.82;1.33;;;;;;;;;;5049824;28;20037;-79
2022/08/30 08:54:38;;;;;;;2.95;1.23;;;;;;;;;;5068596;28;20394;-78
2022/08/30 08:57:04;;;;;;;2.72;1.10;;;;;;;;;;5053804;28;20420;-79
2022/08/30 08:59:30;;;;;;;3.40;1.17;;;;;;;;;;5052827;28;20505;-79
2022/08/30 09:02:01;;;;;;;6.30;1.40;;;;;;;;;;5050285;28;20041;-78
2022/08/30 09:04:37;;;;;;;4.90;1.30;;;;;;;;;;5052633;28;20037;-79
2022/08/30 09:07:05;;;;;;;7.03;1.58;;;;;;;;;;5052625;28;20482;-78
2022/08/30 09:09:33;;;;;;;5.10;1.40;;;;;;;;;;5044460;28;20041;-79
2022/08/30 09:11:59;;;;;;;2.05;1.20;;;;;;;;;;5051099;28;20049;-79
2022/08/30 09:14:27;;;;;;;4.15;1.40;;;;;;;;;;5051021;28;20039;-78
2022/08/30 09:16:57;;;;;;;3.50;1.50;;;;;;;;;;5052492;28;20045;-79
2022/08/30 09:19:37;;;;;;;3.10;1.30;;;;;;;;;;5052614;28;20509;-79
2022/08/30 09:22:05;;;;;;;3.42;1.17;;;;;;;;;;5041825;28;20041;-79
2022/08/30 09:24:42;;;;;;;2.55;1.15;;;;;;;;;;5032703;28;20116;-79
2022/08/30 09:27:17;;;;;;;2.42;1.20;;;;;;;;;;5040676;28;20075;-80
2022/08/30 09:30:05;;;;;;;2.72;1.30;;;;;;;;;;5041758;28;20040;-80
2022/08/30 09:32:32;;;;;;;10.32;1.55;;;;;;;;;;5052871;28;20044;-81
2022/08/30 09:34:58;;;;;;;3.88;1.40;;;;;;;;;;5044613;28;20041;-80
2022/08/30 09:37:45;;;;;;;5.22;1.40;;;;;;;;;;5032612;28;20044;-81
2022/08/30 09:40:13;;;;;;;5.35;1.30;;;;;;;;;;5043187;28;20473;-81
2022/08/30 09:42:39;;;;;;;2.50;1.20;;;;;;;;;;5030719;28;20482;-81
2022/08/30 09:45:10;;;;;;;3.67;1.15;;;;;;;;;;5033384;28;20037;-81
2022/08/30 09:47:41;;;;;;;3.55;1.20;;;;;;;;;;5042048;28;20075;-79
2022/08/30 09:50:15;;;;;;;2.17;1.20;;;;;;;;;;5050064;28;20128;-80
2022/08/30 09:52:47;;;;;;;5.40;1.20;;;;;;;;;;5058810;28;20092;-80
2022/08/30 09:55:19;;;;;;;2.85;1.20;;;;;;;;;;5052664;28;20067;-81
2022/08/30 09:58:04;;;;;;;2.05;1.15;;;;;;;;;;5051955;28;20037;-82
2022/08/30 10:03:37;;;;;;;2.63;1.10;;;;;;;;;;5051136;28;20045;-82
2022/08/30 10:06:25;;;;;;;6.45;1.40;;;;;;;;;;5052341;28;20520;-81
2022/08/30 10:09:15;;;;;;;5.50;1.20;;;;;;;;;;5032984;28;20604;-82
2022/08/30 10:11:53;;;;;;;2.40;1.08;;;;;;;;;;5043964;28;20083;-81
2022/08/30 10:14:19;;;;;;;2.70;1.13;;;;;;;;;;5029623;28;20486;-82
2022/08/30 10:16:48;;;;;;;2.67;1.00;;;;;;;;;;5050576;28;20052;-81
2022/08/30 10:19:17;;;;;;;2.25;1.02;;;;;;;;;;5032125;28;20433;-81
2022/08/30 10:21:48;;;;;;;4.13;1.15;;;;;;;;;;5050169;28;20040;-80
2022/08/30 10:24:18;;;;;;;4.32;1.10;;;;;;;;;;5034952;28;20056;-81
2022/08/30 10:26:44;;;;;;;3.08;1.10;;;;;;;;;;5051974;28;20509;-82
2022/08/30 10:29:18;;;;;;;1.95;1.00;;;;;;;;;;5052638;28;20052;-81
2022/08/30 10:31:44;;;;;;;;;;;;;;;;;;5035382;28;20099;-81
2022/08/30 10:34:16;;;;;;;3.33;1.20;;;;;;;;;;5053046;28;19921;-81
2022/08/30 10:36:48;;;;;;;6.00;1.10;;;;;;;;;;5035099;28;20182;-82
2022/08/30 10:39:18;;;;;;;4.30;1.20;;;;;;;;;;5021232;28;20091;-81
2022/08/30 10:41:48;;;;;;;4.13;1.20;;;;;;;;;;5051863;28;20041;-80
2022/08/30 10:44:32;;;;;;;1.63;1.00;;;;;;;;;;5052066;28;20041;-81
2022/08/30 10:47:20;;;;;;;4.18;0.90;;;;;;;;;;5052587;28;20045;-81
2022/08/30 10:49:48;;;;;;;3.38;1.05;;;;;;;;;;5035492;28;20512;-82
2022/08/30 10:52:14;;;;;;;5.65;1.42;;;;;;;;;;5042890;28;20033;-80
2022/08/30 10:54:45;;;;;;;4.25;1.00;;;;;;;;;;5035334;28;20064;-81
2022/08/30 10:57:14;;;;;;;4.20;1.00;;;;;;;;;;5051587;28;20047;-82
2022/08/30 10:59:44;;;;;;;3.13;0.95;;;;;;;;;;5034571;28;20044;-81
2022/08/30 11:02:10;;;;;;;2.42;1.20;;;;;;;;;;5051114;28;20127;-81
2022/08/30 11:04:39;;;;;;;3.33;1.10;;;;;;;;;;5042118;28;20398;-82
2022/08/30 11:07:24;;;;;;;2.80;1.00;;;;;;;;;;5040690;28;20124;-83
2022/08/30 11:10:09;;;;;;;3.63;1.10;;;;;;;;;;5032268;28;20052;-81
2022/08/30 11:12:35;;;;;;;3.78;0.90;;;;;;;;;;5027642;28;20095;-83
2022/08/30 11:15:14;;;;;;;4.80;1.25;;;;;;;;;;5051756;28;20404;-82
2022/08/30 11:17:54;;;;;;;2.97;1.20;;;;;;;;;;5051162;28;20048;-82
2022/08/30 11:20:23;;;;;;;4.05;1.00;;;;;;;;;;5056738;28;20041;-82
2022/08/30 11:23:24;;;;;;;3.97;1.23;;;;;;;;;;5031397;28;20037;-80
2022/08/30 11:25:56;;;;;;;3.47;1.10;;;;;;;;;;4981402;28;20058;-81
2022/08/30 11:28:35;;;;;;;2.58;1.00;;;;;;;;;;5028417;28;20049;-78
2022/08/30 11:31:07;;;;;;;8.93;1.23;;;;;;;;;;5046685;28;20049;-78
2022/08/30 11:33:40;;;;;;;5.30;1.73;;;;;;;;;;5041972;28;20386;-78
2022/08/30 11:36:07;;;;;;;3.92;1.00;;;;;;;;;;5039617;28;20494;-78
2022/08/30 11:38:33;;;;;;;2.47;1.10;;;;;;;;;;5053030;28;20127;-78
2022/08/30 11:41:07;;;;;;;4.25;1.10;;;;;;;;;;5047464;28;20044;-78
2022/08/30 11:43:33;;;;;;;3.33;1.27;;;;;;;;;;5055701;28;20148;-78
2022/08/30 11:46:18;;;;;;;2.20;0.80;;;;;;;;;;5046237;28;20048;-78
2022/08/30 11:48:51;;;;;;;2.10;1.00;;;;;;;;;;5050137;28;20490;-78
2022/08/30 11:51:32;;;;;;;2.83;1.00;;;;;;;;;;5054028;28;20057;-79
2022/08/30 11:54:27;;;;;;;3.85;0.95;;;;;;;;;;5054421;28;20037;-77
2022/08/30 11:56:53;;;;;;;2.65;1.00;;;;;;;;;;5033689;28;20049;-78
2022/08/30 11:59:25;;;;;;;2.33;1.00;;;;;;;;;;5038510;28;20425;-78
2022/08/30 12:01:51;;;;;;;2.13;0.95;;;;;;;;;;5053900;28;20095;-78
2022/08/30 12:04:21;;;;;;;2.10;0.90;;;;;;;;;;5027544;28;20044;-78
2022/08/30 12:06:59;;;;;;;2.92;1.05;;;;;;;;;;5053582;28;20494;-79
2022/08/30 12:09:28;;;;;;;1.60;0.85;;;;;;;;;;5037967;28;20040;-78
2022/08/30 12:11:54;;;;;;;4.18;1.00;;;;;;;;;;5053754;28;20115;-79
2022/08/30 12:14:39;;;;;;;2.50;0.93;;;;;;;;;;5036851;28;20048;-78
2022/08/30 12:20:22;;;;;;;2.58;1.20;;;;;;;;;;5063303;28;20497;-79
2022/08/30 12:22:49;;;;;;;2.30;1.00;;;;;;;;;;5046394;28;20072;-79
2022/08/30 12:25:22;;;;;;;2.00;0.90;;;;;;;;;;5029723;28;20075;-77
2022/08/30 12:27:48;;;;;;;3.05;0.95;;;;;;;;;;5041564;28;20064;-78
2022/08/30 12:30:23;;;;;;;3.97;1.00;;;;;;;;;;5052019;28;20521;-78
2022/08/30 12:32:49;;;;;;;2.55;1.00;;;;;;;;;;5035512;28;20374;-78
2022/08/30 12:35:22;;;;;;;2.88;1.20;;;;;;;;;;5053495;28;20051;-78
2022/08/30 12:37:59;;;;;;;3.25;1.10;;;;;;;;;;5047404;28;20041;-79
2022/08/30 12:40:26;;;;;;;4.47;1.20;;;;;;;;;;5046260;28;20040;-78
2022/08/30 12:42:57;;;;;;;3.78;1.00;;;;;;;;;;5043430;28;20502;-79
2022/08/30 12:45:36;;;;;;;3.97;1.10;;;;;;;;;;5041900;28;20112;-78
2022/08/30 12:48:05;;;;;;;4.32;1.13;;;;;;;;;;5049593;28;20038;-78
2022/08/30 12:50:34;;;;;;;2.58;0.98;;;;;;;;;;5053368;28;20055;-78
2022/08/30 12:53:05;;;;;;;2.30;0.98;;;;;;;;;;5053326;28;20053;-78
2022/08/30 12:55:33;;;;;;;5.40;1.42;;;;;;;;;;5036923;28;20109;-78
2022/08/30 12:58:03;;;;;;;3.25;1.00;;;;;;;;;;5053263;28;20056;-79
2022/08/30 13:00:33;;;;;;;3.25;0.98;;;;;;;;;;5052891;28;20059;-77
2022/08/30 13:03:01;;;;;;;3.47;1.02;;;;;;;;;;5052848;28;20052;-78
2022/08/30 13:05:39;;;;;;;3.17;1.02;;;;;;;;;;5053223;28;20772;-77
2022/08/30 13:08:24;;;;;;;3.10;1.00;;;;;;;;;;5053203;28;20052;-77
2022/08/30 13:11:01;;;;;;;3.40;0.95;;;;;;;;;;5038627;28;20040;-77
2022/08/30 13:13:30;;;;;;;2.22;0.98;;;;;;;;;;5052633;28;20090;-77
2022/08/30 13:15:56;;;;;;;2.45;0.90;;;;;;;;;;5038894;28;20183;-77
2022/08/30 13:18:28;;;;;;;2.22;1.00;;;;;;;;;;5053092;28;20045;-77
2022/08/30 13:21:10;;;;;;;3.58;1.00;;;;;;;;;;5048863;28;20489;-79
2022/08/30 13:23:36;;;;;;;3.95;1.00;;;;;;;;;;5045214;28;20079;-79
2022/08/30 13:26:02;;;;;;;3.70;1.13;;;;;;;;;;5041853;28;20041;-79
2022/08/30 13:28:28;;;;;;;2.70;0.98;;;;;;;;;;5036457;28;20494;-79
2022/08/30 13:30:54;;;;;;;2.53;1.00;;;;;;;;;;5033883;28;20469;-78
2022/08/30 13:33:20;;;;;;;10.02;1.83;;;;;;;;;;5041527;28;20044;-79
2022/08/30 13:35:46;;;;;;;48.15;4.90;;;;;;;;;;5051894;28;20052;-78
2022/08/30 13:38:12;;;;;;;10.73;1.90;;;;;;;;;;5038406;28;20037;-77
2022/08/30 13:40:38;;;;;;;3.13;1.00;;;;;;;;;;5032815;28;20042;-76
2022/08/30 13:43:04;;;;;;;3.00;1.02;;;;;;;;;;5032862;28;20046;-75
2022/08/30 13:45:30;;;;;;;7.50;1.15;;;;;;;;;;5042343;28;20573;-76
2022/08/30 13:47:57;;;;;;;5.10;1.00;;;;;;;;;;5049338;28;20033;-76
2022/08/30 13:50:23;;;;;;;4.00;1.02;;;;;;;;;;5050416;28;20083;-76
2022/08/30 13:52:49;;;;;;;2.90;1.20;;;;;;;;;;5036190;28;20398;-76
2022/08/30 13:55:15;;;;;;;2.33;0.90;;;;;;;;;;5052060;28;20052;-76
2022/08/30 13:57:41;;;;;;;2.53;1.00;;;;;;;;;;5035766;28;20055;-76
2022/08/30 14:00:09;;;;;;;7.07;1.17;;;;;;;;;;5034477;28;20124;-76
2022/08/30 14:02:35;;;;;;;2.95;1.00;;;;;;;;;;5051945;28;20052;-76
2022/08/30 14:05:01;;;;;;;3.15;0.90;;;;;;;;;;5035660;28;20051;-76
2022/08/30 14:07:27;;;;;;;4.28;0.90;;;;;;;;;;5035304;28;20037;-76
2022/08/30 14:09:53;;;;;;;4.10;1.42;;;;;;;;;;5052015;28;20490;-75
2022/08/30 14:12:19;;;;;;;3.38;0.98;;;;;;;;;;5035724;28;20366;-76
2022/08/30 14:14:45;;;;;;;4.93;1.10;;;;;;;;;;5052343;28;20612;-75
2022/08/30 14:17:11;;;;;;;2.83;1.10;;;;;;;;;;5050633;28;20068;-76
2022/08/30 14:19:37;;;;;;;4.20;1.50;;;;;;;;;;5047467;28;20490;-76
2022/08/30 14:22:04;;;;;;;2.15;0.90;;;;;;;;;;5032721;28;20045;-77
2022/08/30 14:24:30;;;;;;;3.88;0.93;;;;;;;;;;5036809;28;20486;-76
2022/08/30 14:26:56;;;;;;;2.63;1.20;;;;;;;;;;5037672;28;20040;-76
2022/08/30 14:29:28;;;;;;;2.65;1.00;;;;;;;;;;5051489;28;20029;-76
2022/08/30 14:31:55;;;;;;;2.33;1.05;;;;;;;;;;5041147;28;20042;-76
2022/08/30 14:34:21;;;;;;;1.90;0.85;;;;;;;;;;5048635;28;20045;-76
2022/08/30 14:36:47;;;;;;;3.88;1.00;;;;;;;;;;5036255;28;20529;-75
2022/08/30 14:39:16;;;;;;;2.97;1.08;;;;;;;;;;5045635;28;20045;-76
2022/08/30 14:41:44;;;;;;;2.90;1.00;;;;;;;;;;5037169;28;20449;-76
2022/08/30 14:44:11;;;;;;;1.60;0.75;;;;;;;;;;5049167;28;20124;-76
2022/08/30 14:46:37;;;;;;;1.83;0.80;;;;;;;;;;5050173;28;20048;-76
2022/08/30 14:49:03;;;;;;;2.13;0.80;;;;;;;;;;5051116;28;20037;-78
2022/08/30 14:51:29;;;;;;;3.97;1.00;;;;;;;;;;5050776;28;20057;-75
2022/08/30 14:53:55;;;;;;;3.05;0.82;;;;;;;;;;5051394;28;20474;-75
2022/08/30 14:56:22;;;;;;;2.40;0.90;;;;;;;;;;5050524;28;20085;-76
2022/08/30 14:58:49;;;;;;;3.53;0.98;;;;;;;;;;5051387;28;20072;-75
2022/08/30 15:01:15;;;;;;;5.55;1.00;;;;;;;;;;5050390;28;20049;-75